FW6091 Weather Reports


time (UTC)temp
C
wind
direction
speed
KPH
gust
KPH
rain 1hr
cm
rain 24hr
cm
rain mn
cm
humidity
%
barometer
mb
20200229102913 15 57 0.0 1.6 0.00 0.00 0.00 72 1027.7
20200229101405 15 57 0.0 1.6 0.00 0.00 0.00 75 1027.9
20200229094412 15 57 3.2 4.8 0.00 0.00 0.00 74 1028.3
20200229091410 15 322 1.6 3.2 0.00 0.00 0.00 76 1028.3
20200229084415 15 241 1.6 3.2 0.00 0.00 0.00 76 1029.0
20200229082857 15 241 0.0 3.2 0.00 0.00 0.00 77 1029.2
20200229075907 13 241 0.0 3.2 0.00 0.00 0.00 82 1029.5
20200229072911 13 241 0.0 0.0 0.00 0.00 0.00 80 1029.8
20200229071403 13 241 0.0 3.2 0.00 0.00 0.00 79 1030.0
20200229065901 13 241 0.0 3.2 0.00 0.00 0.00 80 1030.1
20200229062912 14 241 0.0 0.0 0.00 0.00 0.00 75 1030.4
20200229055929 15 234 4.8 8.0 0.00 0.00 0.00 74 1031.1
20200229054419 15 239 4.8 11.3 0.00 0.00 0.00 73 1031.3
20200229051413 15 221 3.2 6.4 0.00 0.00 0.00 73 1031.3
20200229045906 16 153 0.0 4.8 0.00 0.00 0.00 72 1031.3
20200229044403 16 144 1.6 3.2 0.00 0.00 0.00 72 1031.1
20200229041415 17 105 1.6 4.8 0.00 0.00 0.00 68 1031.0
20200229035906 17 103 6.4 14.5 0.00 0.00 0.00 66 1030.9
20200229034407 17 65 4.8 17.7 0.00 0.00 0.00 65 1030.7
20200229032904 17 80 11.3 16.1 0.00 0.00 0.00 64 1030.6
20200229025912 18 84 11.3 17.7 0.00 0.00 0.00 62 1030.3
20200229022921 18 79 11.3 22.5 0.00 0.00 0.00 62 1030.1
20200229021406 18 80 12.9 17.7 0.00 0.00 0.00 61 1029.9
20200229015901 19 98 6.4 16.1 0.00 0.00 0.00 60 1029.6
20200229014357 19 89 6.4 14.5 0.00 0.00 0.00 58 1029.1
20200229011419 20 85 12.9 22.5 0.00 0.00 0.00 56 1028.6
20200229005905 21 74 16.1 27.4 0.00 0.00 0.00 54 1028.3
20200229002909 23 119 6.4 17.7 0.00 0.00 0.00 45 1028.0
20200228235913 24 110 6.4 19.3 0.00 0.00 0.00 41 1027.8
20200228234411 25 154 6.4 14.5 0.00 0.00 0.00 41 1027.7
20200228231414 25 108 6.4 12.9 0.00 0.00 0.00 41 1027.6
20200228225900 25 137 9.7 17.7 0.00 0.00 0.00 41 1027.3
20200228222913 25 100 9.7 17.7 0.00 0.00 0.00 42 1027.2
20200228215911 25 83 11.3 20.9 0.00 0.00 0.00 43 1027.4
20200228214409 24 60 8.0 17.7 0.00 0.00 0.00 43 1027.7
20200228205901 24 191 8.0 22.5 0.00 0.00 0.00 41 1028.0
20200228202907 24 145 8.0 19.3 0.00 0.00 0.00 41 1028.2
20200228195909 24 107 8.0 14.5 0.00 0.00 0.00 42 1028.9
20200228194401 24 132 1.6 9.7 0.00 0.00 0.00 40 1029.4
20200228191414 23 145 3.2 14.5 0.00 0.00 0.00 43 1030.1
20200228185906 23 152 4.8 16.1 0.00 0.00 0.00 42 1030.4
20200228182911 22 226 6.4 19.3 0.00 0.00 0.00 43 1030.5
20200228181413 23 37 4.8 17.7 0.00 0.00 0.00 42 1030.8
20200228174409 22 279 3.2 12.9 0.00 0.00 0.00 42 1031.5
20200228171411 21 359 4.8 17.7 0.00 0.00 0.00 44 1031.9
20200228164413 20 91 4.8 14.5 0.00 0.00 0.00 49 1032.0
20200228161415 18 14 1.6 8.0 0.00 0.00 0.00 49 1032.1
20200228152925 16 305 3.2 8.0 0.00 0.00 0.00 54 1031.7
20200228145916 13 359 3.2 6.4 0.00 0.00 0.00 63 1031.1
20200228142915 11 290 1.6 4.8 0.00 0.00 0.00 70 1031.0
20200228135913 8 254 0.0 0.0 0.00 0.00 0.00 74 1031.2
20200228134412 7 254 0.0 0.0 0.00 0.00 0.00 78 1030.8
20200228132900 6 254 0.0 0.0 0.00 0.00 0.00 79 1030.6
20200228125904 6 254 0.0 0.0 0.00 0.00 0.00 77 1030.1
20200228122900 6 254 0.0 0.0 0.00 0.00 0.00 77 1029.6
20200228120126 6 254 0.0 0.0 0.00 0.00 0.00 77 1029.2
20200228112913 6 254 0.0 0.0 0.00 0.00 0.00 73 1029.1
20200228105918 6 254 0.0 0.0 0.00 0.00 0.00 72 1028.9
20200228104400 7 254 0.0 0.0 0.00 0.00 0.00 71 1028.7